This is the latest recevied weather packets stored in our database for station/object EA1BQO-1. If no packets are shown the sender has not sent any weather packets the latest 10 day(s).
| Time | Temp. | Humidity | Pressure | Rain* | Wind** | Luminosity | Snow |
|---|---|---|---|---|---|---|---|
| 1778144278 | 15° C | 52% | 1007.3 hPa | 0 mm | - | - | - |
| 1778143678 | 14.44° C | 58% | 1007.2 hPa | 0 mm | - | - | - |
| 1778143078 | 13.89° C | 62% | 1007.4 hPa | 0 mm | - | - | - |
| 1778142478 | 12.78° C | 66% | 1007.3 hPa | 0 mm | - | - | - |
| 1778141878 | 12.22° C | 66% | 1007.4 hPa | 0 mm | - | - | - |
| 1778141278 | 12.22° C | 67% | 1007.5 hPa | 0 mm | - | - | - |
| 1778140678 | 11.67° C | 69% | 1007.5 hPa | 0 mm | - | - | - |
| 1778140078 | 11.67° C | 70% | 1007.5 hPa | 0 mm | - | - | - |
| 1778139478 | 11.11° C | 71% | 1007.6 hPa | 0 mm | - | - | - |
| 1778138879 | 11.11° C | 70% | 1007.7 hPa | 0 mm | - | - | - |
| 1778138278 | 11.11° C | 70% | 1007.7 hPa | 0 mm | - | - | - |
| 1778137678 | 11.11° C | 72% | 1007.6 hPa | 0 mm | - | - | - |
| 1778137078 | 11.11° C | 71% | 1007.6 hPa | 0 mm | - | - | - |
| 1778136478 | 11.11° C | 74% | 1007.7 hPa | 0 mm | - | - | - |
| 1778135878 | 10.56° C | 76% | 1007.7 hPa | 0 mm | - | - | - |
| 1778135278 | 10° C | 78% | 1007.8 hPa | 0 mm | - | - | - |
| 1778134678 | 9.44° C | 81% | 1007.7 hPa | 0 mm | - | - | - |
| 1778134078 | 8.89° C | 81% | 1007.7 hPa | 0 mm | - | - | - |
| 1778133478 | 8.89° C | 80% | 1007.7 hPa | 0 mm | - | - | - |
| 1778132878 | 8.89° C | 80% | 1007.7 hPa | 0 mm | - | - | - |
| 1778132278 | 8.89° C | 79% | 1007.7 hPa | 0 mm | - | - | - |
| 1778131678 | 9.44° C | 79% | 1007.5 hPa | 0 mm | - | - | - |
| 1778131078 | 9.44° C | 79% | 1007.7 hPa | 0 mm | - | - | - |
| 1778130478 | 9.44° C | 79% | 1007.7 hPa | 0 mm | - | - | - |
| 1778129878 | 9.44° C | 80% | 1007.7 hPa | 0 mm | - | - | - |
* Rain latest hour (hover to see other rain measurements)
** Current wind speed in m/s (hover to see current wind gust speed)